createdAt,value
2019-04-16T00:00:04.741Z,8.80
2019-04-16T00:01:20.767Z,8.80
2019-04-16T00:02:51.396Z,8.80
2019-04-16T00:03:58.343Z,8.80
2019-04-16T00:05:04.775Z,8.80
2019-04-16T00:06:17.155Z,8.80
2019-04-16T00:07:54.765Z,8.80
2019-04-16T00:09:03.967Z,8.70
2019-04-16T00:10:34.022Z,8.70
2019-04-16T00:11:49.543Z,8.80
2019-04-16T00:13:02.405Z,8.70
2019-04-16T00:14:15.362Z,8.70
2019-04-16T00:15:18.762Z,8.60
2019-04-16T00:16:21.885Z,8.60
2019-04-16T00:17:24.788Z,8.70
2019-04-16T00:18:27.930Z,8.60
2019-04-16T00:19:31.087Z,8.60
2019-04-16T00:20:37.960Z,8.60
2019-04-16T00:22:11.655Z,8.60
2019-04-16T00:23:25.660Z,8.60
2019-04-16T00:24:31.363Z,8.60
2019-04-16T00:25:36.097Z,8.60
2019-04-16T00:26:38.893Z,8.50
2019-04-16T00:27:42.132Z,8.50
2019-04-16T00:28:45.324Z,8.60
2019-04-16T00:29:48.705Z,8.60
2019-04-16T00:30:51.907Z,8.60
2019-04-16T00:32:15.560Z,8.50
2019-04-16T00:33:19.438Z,8.60
2019-04-16T00:34:22.501Z,8.50
2019-04-16T00:35:25.103Z,8.60
2019-04-16T00:36:27.922Z,8.60
2019-04-16T00:37:30.561Z,8.50
2019-04-16T00:38:40.555Z,8.60
2019-04-16T00:39:37.818Z,8.60
2019-04-16T00:40:40.324Z,8.60
2019-04-16T00:41:42.896Z,8.60
2019-04-16T00:42:47.252Z,8.60
2019-04-16T00:43:49.794Z,8.50
2019-04-16T00:44:52.609Z,8.50
2019-04-16T00:45:55.622Z,8.60
2019-04-16T00:46:58.288Z,8.60
2019-04-16T00:48:00.954Z,8.60
2019-04-16T00:49:03.454Z,8.60
2019-04-16T00:50:06.661Z,8.60
2019-04-16T00:51:09.175Z,8.60
2019-04-16T00:52:11.691Z,8.60
2019-04-16T00:53:14.374Z,8.60
2019-04-16T00:54:16.934Z,8.60
2019-04-16T00:55:19.637Z,8.60
2019-04-16T00:56:22.555Z,8.60
2019-04-16T00:57:25.098Z,8.60
2019-04-16T00:58:27.853Z,8.50
2019-04-16T00:59:30.348Z,8.50
2019-04-16T01:00:32.884Z,8.60
2019-04-16T01:01:35.651Z,8.50
2019-04-16T01:02:38.327Z,8.50
2019-04-16T01:03:41.294Z,8.50
2019-04-16T01:04:43.843Z,8.50
2019-04-16T01:05:46.458Z,8.50
2019-04-16T01:06:49.032Z,8.50
2019-04-16T01:07:51.607Z,8.40
2019-04-16T01:08:55.278Z,8.50
2019-04-16T01:09:58.087Z,8.40
2019-04-16T01:11:00.930Z,8.40
2019-04-16T01:12:03.454Z,8.40
2019-04-16T01:13:06.108Z,8.40
2019-04-16T01:14:08.622Z,8.40
2019-04-16T01:15:11.141Z,8.40
2019-04-16T01:16:14.029Z,8.30
2019-04-16T01:17:16.654Z,8.40
2019-04-16T01:18:19.411Z,8.40
2019-04-16T01:19:22.009Z,8.40
2019-04-16T01:20:24.932Z,8.40
2019-04-16T01:21:27.448Z,8.30
2019-04-16T01:22:30.061Z,8.30
2019-04-16T01:23:32.597Z,8.30
2019-04-16T01:24:35.125Z,8.30
2019-04-16T01:25:37.890Z,8.30
2019-04-16T01:26:40.447Z,8.40
2019-04-16T01:27:47.643Z,8.40
2019-04-16T01:28:55.141Z,8.30
2019-04-16T01:29:57.796Z,8.30
2019-04-16T01:31:22.844Z,8.30
2019-04-16T01:32:45.091Z,8.30
2019-04-16T01:34:18.129Z,8.40
2019-04-16T01:35:33.851Z,8.30
2019-04-16T01:36:54.990Z,8.40
2019-04-16T01:38:29.207Z,8.40
2019-04-16T01:39:32.196Z,8.40
2019-04-16T01:40:43.432Z,8.30
2019-04-16T01:41:46.544Z,8.20
2019-04-16T01:42:49.089Z,8.20
2019-04-16T01:43:54.345Z,8.20
2019-04-16T01:44:59.342Z,8.20
2019-04-16T01:46:02.205Z,8.20
2019-04-16T01:47:05.389Z,8.20
2019-04-16T01:48:08.505Z,8.20
2019-04-16T01:49:11.585Z,8.20
2019-04-16T01:50:14.414Z,8.10
2019-04-16T01:51:17.196Z,8.10
2019-04-16T01:52:19.987Z,8.10
2019-04-16T01:53:22.524Z,8.10
2019-04-16T01:54:25.077Z,8.10
2019-04-16T01:55:27.799Z,8.10
2019-04-16T01:56:30.317Z,8.10
2019-04-16T01:57:32.861Z,8.10
2019-04-16T01:58:35.621Z,8.10
2019-04-16T01:59:38.615Z,8.00
2019-04-16T02:00:43.117Z,8.00
2019-04-16T02:01:45.663Z,8.00
2019-04-16T02:02:48.406Z,8.00
2019-04-16T02:03:51.027Z,8.00
2019-04-16T02:04:53.517Z,8.00
2019-04-16T02:05:56.112Z,7.90
2019-04-16T02:06:59.041Z,8.00
2019-04-16T02:08:01.815Z,7.90
2019-04-16T02:09:05.611Z,7.90
2019-04-16T02:10:08.440Z,7.90
2019-04-16T02:11:11.460Z,7.90
2019-04-16T02:12:14.234Z,7.90
2019-04-16T02:13:16.876Z,7.90
2019-04-16T02:14:22.105Z,8.00
2019-04-16T02:15:23.915Z,7.90
2019-04-16T02:16:26.548Z,8.00
2019-04-16T02:17:29.154Z,8.00
2019-04-16T02:18:31.778Z,8.00
2019-04-16T02:19:34.525Z,8.00
2019-04-16T02:20:39.301Z,8.00
2019-04-16T02:21:42.068Z,8.00
2019-04-16T02:22:45.261Z,8.00
2019-04-16T02:23:48.808Z,8.00
2019-04-16T02:24:51.844Z,8.00
2019-04-16T02:25:54.471Z,8.10
2019-04-16T02:26:57.102Z,8.10
2019-04-16T02:27:59.982Z,8.10
2019-04-16T02:29:02.584Z,8.10
2019-04-16T02:30:05.912Z,8.10
2019-04-16T02:31:13.922Z,8.10
2019-04-16T02:32:13.369Z,8.20
2019-04-16T02:33:16.005Z,8.10
2019-04-16T02:34:18.573Z,8.10
2019-04-16T02:35:21.315Z,8.10
2019-04-16T02:36:24.151Z,8.10
2019-04-16T02:37:26.777Z,8.00
2019-04-16T02:38:29.552Z,8.00
2019-04-16T02:39:47.554Z,8.00
2019-04-16T02:40:36.766Z,8.00
2019-04-16T02:41:39.740Z,8.00
2019-04-16T02:42:42.355Z,8.00
2019-04-16T02:43:45.173Z,7.90
2019-04-16T02:44:50.083Z,7.90
2019-04-16T02:45:56.692Z,7.90
2019-04-16T02:46:56.767Z,7.90
2019-04-16T02:47:59.279Z,8.00
2019-04-16T02:49:02.253Z,8.00
2019-04-16T02:50:06.832Z,8.10
2019-04-16T02:51:22.738Z,8.10
2019-04-16T02:52:50.407Z,8.00
2019-04-16T02:54:01.933Z,8.00
2019-04-16T02:55:22.483Z,8.00
2019-04-16T02:56:59.705Z,8.00
2019-04-16T02:58:15.041Z,8.10
2019-04-16T02:59:22.198Z,8.10
2019-04-16T03:00:35.577Z,8.10
2019-04-16T03:01:46.006Z,8.10
2019-04-16T03:02:53.999Z,8.10
2019-04-16T03:04:04.209Z,8.10
2019-04-16T03:05:29.922Z,8.10
2019-04-16T03:06:33.002Z,8.10
2019-04-16T03:07:35.629Z,8.00
2019-04-16T03:08:38.331Z,8.00
2019-04-16T03:09:41.196Z,8.00
2019-04-16T03:10:44.627Z,8.00
2019-04-16T03:11:49.222Z,8.00
2019-04-16T03:12:52.940Z,8.00
2019-04-16T03:13:58.468Z,7.90
2019-04-16T03:15:01.092Z,7.90
2019-04-16T03:16:29.847Z,7.90
2019-04-16T03:17:39.613Z,8.00
2019-04-16T03:18:48.375Z,8.00
2019-04-16T03:19:52.085Z,8.00
2019-04-16T03:20:55.623Z,8.00
2019-04-16T03:22:01.916Z,8.10
2019-04-16T03:23:06.767Z,8.10
2019-04-16T03:24:10.041Z,8.00
2019-04-16T03:25:14.351Z,7.90
2019-04-16T03:26:19.094Z,7.90
2019-04-16T03:27:22.869Z,7.80
2019-04-16T03:28:27.392Z,7.80
2019-04-16T03:29:30.453Z,7.70
2019-04-16T03:30:40.438Z,7.70
2019-04-16T03:31:38.599Z,7.80
2019-04-16T03:32:50.782Z,7.80
2019-04-16T03:33:53.468Z,7.80
2019-04-16T03:34:56.547Z,7.80
2019-04-16T03:35:59.046Z,7.80
2019-04-16T03:37:02.880Z,7.70
2019-04-16T03:38:06.268Z,7.70
2019-04-16T03:39:12.217Z,7.70
2019-04-16T03:40:17.785Z,7.70
2019-04-16T03:41:20.038Z,7.80
2019-04-16T03:42:24.428Z,7.70
2019-04-16T03:43:29.531Z,7.70
2019-04-16T03:44:33.595Z,7.60
2019-04-16T03:45:37.527Z,7.60
2019-04-16T03:46:46.320Z,7.70
2019-04-16T03:47:50.907Z,7.60
2019-04-16T03:48:52.679Z,7.60
2019-04-16T03:49:56.353Z,7.60
2019-04-16T03:51:00.488Z,7.50
2019-04-16T03:52:04.927Z,7.50
2019-04-16T03:53:08.154Z,7.50
2019-04-16T03:54:10.901Z,7.60
2019-04-16T03:55:13.597Z,7.60
2019-04-16T03:56:16.309Z,7.60
2019-04-16T03:57:18.924Z,7.60
2019-04-16T03:58:21.692Z,7.60
2019-04-16T03:59:24.438Z,7.60
2019-04-16T04:00:27.189Z,7.70
2019-04-16T04:01:29.728Z,7.60
2019-04-16T04:02:32.244Z,7.60
2019-04-16T04:03:34.964Z,7.60
2019-04-16T04:04:37.449Z,7.60
2019-04-16T04:05:40.130Z,7.50
2019-04-16T04:06:42.740Z,7.60
2019-04-16T04:07:45.336Z,7.60
2019-04-16T04:08:49.291Z,7.60
2019-04-16T04:09:54.597Z,7.60
2019-04-16T04:10:57.140Z,7.60
2019-04-16T04:11:59.744Z,7.50
2019-04-16T04:13:04.841Z,7.50
2019-04-16T04:14:07.176Z,7.50
2019-04-16T04:15:09.736Z,7.50
2019-04-16T04:16:12.640Z,7.40
2019-04-16T04:17:15.426Z,7.50
2019-04-16T04:18:18.091Z,7.50
2019-04-16T04:19:20.868Z,7.50
2019-04-16T04:20:23.801Z,7.50
2019-04-16T04:21:26.378Z,7.50
2019-04-16T04:22:29.285Z,7.50
2019-04-16T04:23:31.904Z,7.50
2019-04-16T04:24:34.643Z,7.40
2019-04-16T04:25:38.265Z,7.40
2019-04-16T04:26:42.231Z,7.50
2019-04-16T04:27:46.804Z,7.40
2019-04-16T04:28:51.618Z,7.40
2019-04-16T04:29:56.517Z,7.40
2019-04-16T04:31:00.995Z,7.50
2019-04-16T04:32:04.150Z,7.50
2019-04-16T04:33:08.958Z,7.50
2019-04-16T04:34:15.356Z,7.50
2019-04-16T04:35:20.251Z,7.50
2019-04-16T04:36:22.982Z,7.50
2019-04-16T04:37:24.966Z,7.50
2019-04-16T04:38:27.604Z,7.50
2019-04-16T04:39:30.137Z,7.50
2019-04-16T04:40:43.694Z,7.50
2019-04-16T04:41:37.340Z,7.50
2019-04-16T04:42:39.855Z,7.50
2019-04-16T04:43:42.558Z,7.50
2019-04-16T04:44:46.958Z,7.50
2019-04-16T04:45:49.622Z,7.50
2019-04-16T04:46:52.178Z,7.40
2019-04-16T04:47:55.793Z,7.40
2019-04-16T04:49:00.172Z,7.40
2019-04-16T04:50:04.381Z,7.50
2019-04-16T04:51:08.345Z,7.50
2019-04-16T04:52:14.740Z,7.50
2019-04-16T04:53:19.174Z,7.50
2019-04-16T04:54:22.619Z,7.50
2019-04-16T04:55:26.859Z,7.50
2019-04-16T04:56:29.522Z,7.50
2019-04-16T04:57:32.083Z,7.60
2019-04-16T04:58:34.936Z,7.50
2019-04-16T04:59:37.574Z,7.50
2019-04-16T05:00:41.127Z,7.60
2019-04-16T05:01:44.037Z,7.70
2019-04-16T05:02:46.672Z,7.60
2019-04-16T05:04:08.916Z,7.60
2019-04-16T05:05:28.865Z,7.60
2019-04-16T05:06:34.624Z,7.60
2019-04-16T05:07:37.148Z,7.60
2019-04-16T05:08:39.889Z,7.60
2019-04-16T05:09:42.417Z,7.60
2019-04-16T05:10:52.700Z,7.60
2019-04-16T05:11:49.711Z,7.70
2019-04-16T05:12:53.587Z,7.70
2019-04-16T05:13:57.131Z,7.70
2019-04-16T05:14:59.862Z,7.70
2019-04-16T05:16:02.741Z,7.70
2019-04-16T05:17:07.593Z,7.70
2019-04-16T05:18:10.970Z,7.70
2019-04-16T05:19:16.658Z,7.60
2019-04-16T05:20:19.182Z,7.70
2019-04-16T05:21:21.725Z,7.70
2019-04-16T05:22:24.329Z,7.60
2019-04-16T05:23:27.055Z,7.70
2019-04-16T05:24:29.992Z,7.70
2019-04-16T05:25:34.150Z,7.70
2019-04-16T05:26:37.414Z,7.80
2019-04-16T05:27:41.052Z,7.70
2019-04-16T05:28:45.548Z,7.80
2019-04-16T05:29:49.564Z,7.80
2019-04-16T05:30:53.497Z,7.90
2019-04-16T05:31:57.343Z,7.80
2019-04-16T05:33:05.150Z,7.90
2019-04-16T05:34:05.999Z,7.90
2019-04-16T05:35:10.465Z,7.90
2019-04-16T05:36:15.156Z,8.00
2019-04-16T05:37:19.807Z,8.00
2019-04-16T05:38:23.800Z,8.00
2019-04-16T05:39:28.557Z,8.00
2019-04-16T05:40:34.211Z,8.00
2019-04-16T05:41:36.204Z,8.10
2019-04-16T05:42:38.734Z,8.10
2019-04-16T05:43:41.380Z,8.10
2019-04-16T05:44:44.023Z,8.10
2019-04-16T05:45:46.711Z,8.10
2019-04-16T05:46:50.525Z,8.10
2019-04-16T05:47:53.405Z,8.10
2019-04-16T05:48:56.143Z,8.20
2019-04-16T05:49:58.816Z,8.20
2019-04-16T05:51:01.533Z,8.30
2019-04-16T05:52:04.235Z,8.20
2019-04-16T05:53:09.320Z,8.30
2019-04-16T05:54:30.714Z,8.30
2019-04-16T05:55:42.864Z,8.30
2019-04-16T05:56:49.004Z,8.40
2019-04-16T05:57:51.900Z,8.40
2019-04-16T05:58:54.824Z,8.40
2019-04-16T05:59:57.347Z,8.40
2019-04-16T06:01:07.329Z,8.40
2019-04-16T06:02:23.497Z,8.50
2019-04-16T06:03:26.042Z,8.40
2019-04-16T06:04:28.659Z,8.50
2019-04-16T06:05:31.219Z,8.50
2019-04-16T06:06:34.982Z,8.50
2019-04-16T06:07:37.993Z,8.50
2019-04-16T06:08:41.767Z,8.50
2019-04-16T06:09:45.221Z,8.50
2019-04-16T06:10:50.921Z,8.60
2019-04-16T06:11:52.394Z,8.70
2019-04-16T06:13:11.721Z,8.60
2019-04-16T06:14:36.645Z,8.70
2019-04-16T06:15:58.714Z,8.70
2019-04-16T06:17:20.836Z,8.70
2019-04-16T06:18:49.060Z,8.80
2019-04-16T06:20:09.515Z,8.80
2019-04-16T06:21:25.830Z,8.90
2019-04-16T06:22:46.614Z,9.00
2019-04-16T06:24:04.423Z,9.00
2019-04-16T06:25:45.101Z,9.10
2019-04-16T06:27:10.293Z,9.20
2019-04-16T06:28:35.398Z,9.30
2019-04-16T06:29:49.107Z,9.30
2019-04-16T06:31:05.643Z,9.40
2019-04-16T06:32:28.159Z,9.40
2019-04-16T06:33:49.519Z,9.40
2019-04-16T06:35:12.044Z,9.50
2019-04-16T06:36:33.210Z,9.50
2019-04-16T06:37:55.554Z,9.50
2019-04-16T06:39:08.129Z,9.60
2019-04-16T06:40:32.130Z,9.50
2019-04-16T06:41:52.738Z,9.60
2019-04-16T06:43:03.555Z,9.60
2019-04-16T06:44:10.701Z,9.70
2019-04-16T06:45:28.310Z,9.70
2019-04-16T06:46:43.623Z,9.70
2019-04-16T06:48:12.700Z,9.70
2019-04-16T06:49:40.749Z,9.80
2019-04-16T06:51:01.804Z,9.90
2019-04-16T06:52:26.669Z,9.90
2019-04-16T06:53:47.349Z,9.90
2019-04-16T06:55:17.556Z,9.80
2019-04-16T06:56:43.308Z,9.90
2019-04-16T06:58:03.394Z,9.90
2019-04-16T06:59:30.464Z,9.80
2019-04-16T07:00:51.295Z,9.80
2019-04-16T07:02:11.498Z,9.90
2019-04-16T07:03:48.876Z,9.90
2019-04-16T07:05:12.707Z,9.90
2019-04-16T07:06:36.482Z,10.00
2019-04-16T07:07:56.387Z,10.00
2019-04-16T07:09:25.648Z,10.10
2019-04-16T07:10:43.786Z,10.10
2019-04-16T07:11:34.164Z,10.10
2019-04-16T07:12:38.669Z,10.10
2019-04-16T07:13:42.248Z,10.20
2019-04-16T07:14:48.363Z,10.20
2019-04-16T07:15:50.243Z,10.20
2019-04-16T07:16:52.861Z,10.30
2019-04-16T07:17:55.573Z,10.30
2019-04-16T07:18:58.105Z,10.40
2019-04-16T07:20:04.353Z,10.40
2019-04-16T07:21:05.634Z,10.50
2019-04-16T07:22:08.350Z,10.50
2019-04-16T07:23:10.855Z,10.50
2019-04-16T07:24:13.488Z,10.50
2019-04-16T07:25:17.226Z,10.50
2019-04-16T07:26:20.207Z,10.50
2019-04-16T07:27:23.140Z,10.50
2019-04-16T07:28:34.079Z,10.50
2019-04-16T07:30:06.878Z,10.50
2019-04-16T07:31:33.394Z,10.60
2019-04-16T07:33:00.675Z,10.50
2019-04-16T07:34:21.572Z,10.70
2019-04-16T07:35:49.639Z,10.80
2019-04-16T07:37:05.380Z,10.90
2019-04-16T07:38:35.130Z,10.90
2019-04-16T07:39:56.527Z,11.10
2019-04-16T07:41:17.505Z,11.30
2019-04-16T07:42:28.838Z,11.40
2019-04-16T07:43:49.430Z,11.60
2019-04-16T07:45:11.398Z,11.60
2019-04-16T07:46:30.456Z,11.80
2019-04-16T07:47:51.661Z,11.90
2019-04-16T07:49:10.971Z,11.90
2019-04-16T07:50:34.529Z,12.10
2019-04-16T07:52:07.801Z,12.30
2019-04-16T07:53:29.693Z,12.30
2019-04-16T07:54:54.627Z,12.70
2019-04-16T07:56:00.628Z,12.80
2019-04-16T07:57:05.116Z,13.10
2019-04-16T07:58:07.615Z,13.20
2019-04-16T07:59:10.166Z,13.20
2019-04-16T08:00:14.228Z,13.30
2019-04-16T08:01:16.955Z,13.40
2019-04-16T08:02:22.303Z,13.40
2019-04-16T08:03:26.794Z,13.50
2019-04-16T08:04:35.308Z,13.70
2019-04-16T08:05:34.348Z,13.90
2019-04-16T08:06:37.123Z,14.10
2019-04-16T08:07:39.849Z,14.20
2019-04-16T08:08:42.622Z,14.10
2019-04-16T08:09:45.428Z,14.20
2019-04-16T08:10:47.983Z,14.30
2019-04-16T08:11:50.555Z,14.40
2019-04-16T08:13:00.731Z,14.50
2019-04-16T08:14:02.782Z,14.60
2019-04-16T08:15:13.828Z,14.80
2019-04-16T08:16:10.315Z,14.80
2019-04-16T08:17:13.158Z,14.90
2019-04-16T08:18:16.051Z,15.10
2019-04-16T08:19:18.672Z,15.20
2019-04-16T08:20:21.452Z,15.30
2019-04-16T08:21:24.154Z,15.50
2019-04-16T08:22:26.980Z,15.60
2019-04-16T08:23:39.329Z,15.70
2019-04-16T08:24:45.197Z,15.70
2019-04-16T08:25:51.140Z,16.00
2019-04-16T08:26:52.535Z,15.90
2019-04-16T08:27:55.375Z,16.10
2019-04-16T08:28:58.083Z,16.10
2019-04-16T08:30:03.366Z,16.30
2019-04-16T08:31:11.015Z,16.40
2019-04-16T08:32:12.894Z,16.50
2019-04-16T08:33:15.478Z,16.50
2019-04-16T08:34:18.174Z,16.70
2019-04-16T08:35:20.687Z,16.60
2019-04-16T08:36:23.206Z,16.30
2019-04-16T08:37:25.781Z,16.40
2019-04-16T08:38:28.407Z,16.50
2019-04-16T08:39:30.927Z,16.70
2019-04-16T08:40:33.467Z,16.90
2019-04-16T08:41:36.028Z,17.10
2019-04-16T08:42:44.755Z,17.10
2019-04-16T08:43:43.005Z,17.30
2019-04-16T08:44:45.647Z,17.20
2019-04-16T08:45:48.605Z,17.40
2019-04-16T08:46:51.270Z,17.40
2019-04-16T08:47:53.796Z,17.50
2019-04-16T08:48:56.330Z,17.60
2019-04-16T08:49:59.288Z,17.60
2019-04-16T08:51:04.678Z,17.70
2019-04-16T08:52:09.910Z,17.70
2019-04-16T08:53:14.245Z,17.70
2019-04-16T08:54:18.140Z,17.60
2019-04-16T08:55:20.481Z,17.60
2019-04-16T08:56:24.378Z,17.50
2019-04-16T08:57:31.748Z,17.70
2019-04-16T08:58:31.524Z,18.00
2019-04-16T08:59:34.218Z,17.90
2019-04-16T09:00:39.453Z,17.90
2019-04-16T09:01:42.614Z,17.90
2019-04-16T09:02:45.246Z,17.90
2019-04-16T09:03:49.792Z,18.10
2019-04-16T09:04:52.433Z,18.10
2019-04-16T09:05:55.224Z,18.30
2019-04-16T09:07:10.216Z,18.30
2019-04-16T09:08:22.751Z,18.50
2019-04-16T09:09:39.734Z,18.60
2019-04-16T09:10:44.671Z,18.40
2019-04-16T09:11:51.763Z,18.60
2019-04-16T09:13:03.782Z,18.20
2019-04-16T09:14:01.381Z,18.30
2019-04-16T09:15:04.636Z,18.30
2019-04-16T09:16:10.273Z,18.40
2019-04-16T09:17:33.312Z,18.40
2019-04-16T09:18:44.657Z,18.30
2019-04-16T09:19:52.367Z,18.30
2019-04-16T09:20:54.952Z,18.40
2019-04-16T09:21:57.501Z,18.60
2019-04-16T09:23:00.231Z,18.70
2019-04-16T09:24:19.170Z,18.80
2019-04-16T09:25:42.563Z,18.80
2019-04-16T09:27:06.734Z,19.00
2019-04-16T09:28:25.722Z,19.00
2019-04-16T09:29:48.811Z,19.20
2019-04-16T09:31:10.293Z,18.70
2019-04-16T09:32:20.186Z,18.70
2019-04-16T09:33:30.443Z,18.70
2019-04-16T09:35:07.437Z,18.60
2019-04-16T09:36:04.663Z,18.70
2019-04-16T09:37:20.410Z,18.60
2019-04-16T09:38:45.174Z,18.60
2019-04-16T09:40:17.591Z,18.50
2019-04-16T09:41:38.623Z,18.30
2019-04-16T09:42:41.313Z,17.80
2019-04-16T09:43:46.811Z,17.70
2019-04-16T09:44:49.375Z,17.70
2019-04-16T09:45:52.483Z,17.30
2019-04-16T09:46:59.532Z,17.20
2019-04-16T09:48:02.399Z,17.20
2019-04-16T09:49:05.190Z,17.20
2019-04-16T09:50:11.008Z,17.10
2019-04-16T09:51:19.029Z,17.00
2019-04-16T09:52:19.958Z,16.90
2019-04-16T09:53:33.683Z,16.70
2019-04-16T09:54:27.248Z,16.60
2019-04-16T09:55:30.046Z,16.60
2019-04-16T09:56:32.602Z,16.40
2019-04-16T09:57:35.237Z,16.30
2019-04-16T09:58:42.346Z,16.20
2019-04-16T09:59:47.680Z,16.10
2019-04-16T10:01:00.172Z,16.10
2019-04-16T10:02:09.620Z,16.10
2019-04-16T10:03:28.180Z,16.00
2019-04-16T10:04:30.100Z,15.90
2019-04-16T10:05:32.859Z,15.80
2019-04-16T10:06:35.911Z,15.80
2019-04-16T10:07:40.277Z,15.80
2019-04-16T10:08:45.610Z,15.80
2019-04-16T10:09:51.271Z,15.80
2019-04-16T10:10:53.154Z,15.80
2019-04-16T10:11:57.422Z,15.70
2019-04-16T10:13:00.310Z,15.60
2019-04-16T10:14:05.101Z,15.60
2019-04-16T10:15:08.074Z,15.60
2019-04-16T10:16:13.581Z,15.70
2019-04-16T10:17:15.534Z,15.70
2019-04-16T10:18:18.054Z,15.70
2019-04-16T10:19:21.679Z,15.70
2019-04-16T10:20:26.154Z,15.50
2019-04-16T10:21:29.323Z,15.50
2019-04-16T10:22:33.386Z,15.60
2019-04-16T10:23:55.753Z,15.60
2019-04-16T10:25:07.259Z,15.60
2019-04-16T10:26:09.932Z,15.30
2019-04-16T10:27:17.191Z,15.40
2019-04-16T10:28:30.767Z,15.30
2019-04-16T10:29:33.446Z,15.20
2019-04-16T10:30:41.936Z,15.30
2019-04-16T10:31:44.723Z,15.30
2019-04-16T10:32:47.655Z,15.20
2019-04-16T10:33:50.245Z,15.30
2019-04-16T10:34:53.254Z,15.30
2019-04-16T10:35:57.456Z,15.30
2019-04-16T10:37:00.535Z,15.30
2019-04-16T10:38:13.603Z,15.30
2019-04-16T10:39:36.138Z,15.30
2019-04-16T10:40:42.316Z,15.30
2019-04-16T10:41:56.401Z,15.40
2019-04-16T10:43:17.284Z,15.40
2019-04-16T10:44:57.746Z,15.30
2019-04-16T10:46:22.278Z,15.20
2019-04-16T10:47:54.508Z,15.20
2019-04-16T10:49:34.742Z,15.20
2019-04-16T10:50:44.381Z,15.20
2019-04-16T10:52:01.476Z,15.20
2019-04-16T10:53:29.419Z,15.10
2019-04-16T10:54:44.652Z,15.10
2019-04-16T10:56:22.189Z,15.20
2019-04-16T10:57:56.201Z,15.10
2019-04-16T10:59:10.510Z,15.10
2019-04-16T11:00:41.769Z,15.10
2019-04-16T11:01:53.109Z,15.10
2019-04-16T11:03:01.601Z,15.10
2019-04-16T11:04:23.844Z,15.10
2019-04-16T11:05:57.081Z,15.10
2019-04-16T11:07:03.369Z,15.10
2019-04-16T11:08:07.550Z,15.20
2019-04-16T11:09:10.716Z,15.20
2019-04-16T11:10:13.613Z,15.10
2019-04-16T11:11:17.358Z,15.10
2019-04-16T11:12:19.976Z,15.10
2019-04-16T11:13:31.597Z,15.10
2019-04-16T11:14:34.311Z,15.10
2019-04-16T11:15:37.485Z,15.00
2019-04-16T11:16:41.662Z,15.10
2019-04-16T11:17:44.201Z,15.00
2019-04-16T11:18:46.822Z,15.00
2019-04-16T11:19:52.620Z,14.90
2019-04-16T11:20:54.810Z,15.00
2019-04-16T11:21:59.899Z,14.90
2019-04-16T11:23:02.090Z,14.90
2019-04-16T11:24:04.706Z,15.00
2019-04-16T11:25:10.795Z,15.00
2019-04-16T11:26:13.328Z,15.00
2019-04-16T11:27:16.086Z,15.10
2019-04-16T11:28:18.680Z,15.10
2019-04-16T11:29:22.460Z,15.10
2019-04-16T11:30:35.192Z,15.20
2019-04-16T11:31:37.713Z,15.20
2019-04-16T11:32:40.483Z,15.20
2019-04-16T11:33:43.192Z,15.10
2019-04-16T11:34:45.933Z,15.10
2019-04-16T11:35:53.026Z,15.10
2019-04-16T11:36:58.175Z,15.10
2019-04-16T11:37:59.350Z,15.10
2019-04-16T11:39:01.839Z,15.20
2019-04-16T11:40:05.330Z,15.20
2019-04-16T11:41:08.061Z,15.20
2019-04-16T11:42:10.983Z,15.20
2019-04-16T11:43:15.583Z,15.20
2019-04-16T11:44:20.642Z,15.20
2019-04-16T11:45:23.219Z,15.20
2019-04-16T11:46:26.818Z,15.20
2019-04-16T11:47:33.808Z,15.20
2019-04-16T11:48:37.191Z,15.20
2019-04-16T11:49:38.466Z,15.20
2019-04-16T11:50:41.141Z,15.20
2019-04-16T11:51:43.696Z,15.10
2019-04-16T11:52:46.504Z,15.20
2019-04-16T11:53:49.146Z,15.20
2019-04-16T11:54:51.884Z,15.20
2019-04-16T11:55:54.481Z,15.20
2019-04-16T11:56:59.459Z,15.20
2019-04-16T11:58:03.831Z,15.20
2019-04-16T11:59:06.660Z,15.30
2019-04-16T12:00:11.514Z,15.20
2019-04-16T12:01:33.991Z,15.20
2019-04-16T12:02:59.266Z,15.30
2019-04-16T12:04:30.518Z,15.20
2019-04-16T12:05:51.676Z,15.30
2019-04-16T12:07:08.402Z,15.20
2019-04-16T12:08:23.522Z,15.30
2019-04-16T12:09:48.513Z,15.20
2019-04-16T12:11:00.823Z,15.30
2019-04-16T12:12:11.425Z,15.20
2019-04-16T12:13:19.843Z,15.20
2019-04-16T12:14:42.081Z,15.20
2019-04-16T12:15:50.187Z,15.20
2019-04-16T12:16:58.735Z,15.30
2019-04-16T12:18:35.889Z,15.30
2019-04-16T12:19:56.695Z,15.30
2019-04-16T12:21:25.120Z,15.30
2019-04-16T12:22:32.173Z,15.30
2019-04-16T12:24:02.814Z,15.30
2019-04-16T12:25:34.087Z,15.30
2019-04-16T12:26:48.790Z,15.40
2019-04-16T12:28:12.571Z,15.30
2019-04-16T12:29:47.296Z,15.30
2019-04-16T12:31:16.865Z,15.30
2019-04-16T12:32:33.344Z,15.30
2019-04-16T12:33:43.066Z,15.40
2019-04-16T12:34:56.862Z,15.30
2019-04-16T12:36:21.747Z,15.30
2019-04-16T12:37:42.815Z,15.30
2019-04-16T12:38:56.516Z,15.30
2019-04-16T12:40:18.631Z,15.40
2019-04-16T12:41:37.901Z,15.30
2019-04-16T12:43:14.754Z,15.30
2019-04-16T12:44:44.652Z,15.40
2019-04-16T12:45:57.274Z,15.40
2019-04-16T12:47:13.881Z,15.40
2019-04-16T12:48:53.595Z,15.50
2019-04-16T12:50:16.758Z,15.50
2019-04-16T12:51:30.467Z,15.50
2019-04-16T12:52:51.943Z,15.50
2019-04-16T12:54:13.613Z,15.50
2019-04-16T12:55:31.734Z,15.50
2019-04-16T12:57:14.211Z,15.60
2019-04-16T12:58:50.680Z,15.60
2019-04-16T13:00:09.715Z,15.60
2019-04-16T13:01:19.797Z,15.60
2019-04-16T13:02:45.611Z,15.60
2019-04-16T13:04:01.695Z,15.60
2019-04-16T13:05:10.357Z,15.70
2019-04-16T13:06:30.666Z,15.70
2019-04-16T13:08:04.883Z,15.60
2019-04-16T13:09:29.929Z,15.60
2019-04-16T13:10:40.390Z,15.60
2019-04-16T13:12:08.425Z,15.60
2019-04-16T13:13:27.627Z,15.70
2019-04-16T13:15:00.744Z,15.70
2019-04-16T13:16:22.519Z,15.70
2019-04-16T13:18:03.462Z,15.70
2019-04-16T13:19:24.169Z,15.70
2019-04-16T13:20:46.399Z,15.70
2019-04-16T13:21:52.970Z,15.70
2019-04-16T13:22:57.101Z,15.70
2019-04-16T13:24:10.368Z,15.70
2019-04-16T13:25:21.472Z,15.70
2019-04-16T13:26:29.359Z,15.70
2019-04-16T13:27:34.385Z,15.70
2019-04-16T13:28:37.036Z,15.70
2019-04-16T13:29:39.646Z,15.80
2019-04-16T13:30:42.158Z,15.80
2019-04-16T13:31:44.678Z,15.80
2019-04-16T13:32:47.159Z,15.80
2019-04-16T13:33:50.985Z,15.80
2019-04-16T13:34:53.604Z,15.80
2019-04-16T13:36:05.038Z,15.80
2019-04-16T13:37:12.904Z,15.90
2019-04-16T13:38:23.607Z,15.80
2019-04-16T13:39:40.294Z,15.80
2019-04-16T13:40:42.966Z,15.80
2019-04-16T13:41:45.729Z,15.80
2019-04-16T13:42:48.250Z,15.80
2019-04-16T13:43:55.484Z,15.90
2019-04-16T13:45:21.741Z,15.90
2019-04-16T13:46:22.102Z,15.90
2019-04-16T13:47:25.004Z,15.90
2019-04-16T13:48:42.463Z,16.00
2019-04-16T13:50:04.965Z,15.90
2019-04-16T13:51:14.905Z,15.90
2019-04-16T13:52:16.971Z,15.90
2019-04-16T13:53:38.041Z,15.90
2019-04-16T13:55:09.640Z,16.00
2019-04-16T13:56:36.543Z,16.00
2019-04-16T13:57:39.672Z,16.00
2019-04-16T13:59:16.681Z,16.00
2019-04-16T14:00:24.677Z,16.00
2019-04-16T14:01:29.545Z,16.10
2019-04-16T14:02:47.846Z,16.10
2019-04-16T14:03:50.338Z,16.10
2019-04-16T14:04:52.978Z,16.00
2019-04-16T14:05:55.509Z,16.10
2019-04-16T14:06:58.051Z,16.00
2019-04-16T14:08:00.548Z,16.10
2019-04-16T14:09:05.772Z,16.00
2019-04-16T14:10:08.339Z,16.00
2019-04-16T14:11:10.885Z,16.00
2019-04-16T14:12:13.793Z,16.10
2019-04-16T14:13:16.380Z,16.00
2019-04-16T14:14:22.464Z,16.10
2019-04-16T14:15:32.234Z,16.10
2019-04-16T14:16:30.842Z,16.10
2019-04-16T14:17:36.485Z,16.20
2019-04-16T14:18:38.137Z,16.20
2019-04-16T14:19:40.876Z,16.20
2019-04-16T14:20:43.539Z,16.20
2019-04-16T14:21:46.096Z,16.20
2019-04-16T14:22:53.371Z,16.20
2019-04-16T14:23:53.140Z,16.20
2019-04-16T14:24:55.797Z,16.20
2019-04-16T14:25:58.625Z,16.20
2019-04-16T14:27:01.618Z,16.20
2019-04-16T14:28:05.276Z,16.20
2019-04-16T14:29:07.909Z,16.20
2019-04-16T14:30:15.246Z,16.20
2019-04-16T14:31:18.656Z,16.20
2019-04-16T14:32:21.397Z,16.20
2019-04-16T14:33:40.371Z,16.10
2019-04-16T14:34:52.650Z,16.10
2019-04-16T14:35:55.172Z,16.10
2019-04-16T14:36:58.163Z,16.10
2019-04-16T14:38:01.166Z,16.10
2019-04-16T14:39:16.405Z,16.10
2019-04-16T14:40:22.627Z,16.10
2019-04-16T14:41:25.342Z,16.20
2019-04-16T14:42:28.115Z,16.20
2019-04-16T14:43:34.899Z,16.20
2019-04-16T14:44:41.288Z,16.20
2019-04-16T14:45:57.737Z,16.10
2019-04-16T14:46:51.278Z,16.20
2019-04-16T14:47:54.208Z,16.20
2019-04-16T14:48:56.890Z,16.20
2019-04-16T14:49:59.597Z,16.20
2019-04-16T14:51:02.924Z,16.20
2019-04-16T14:52:06.072Z,16.20
2019-04-16T14:53:08.709Z,16.30
2019-04-16T14:54:21.642Z,16.30
2019-04-16T14:55:58.443Z,16.20
2019-04-16T14:56:50.994Z,16.20